Rijeka, Croatia
Current Conditions -  °F | °C
As of 8:00 PM on Monday 20 Oct 2014 (Local Time) from LDRI Reporting Station
Broken Clouds Broken Clouds  
Wind Chill: 64°   Ceiling: 3300
Heat Index: 64°   Visibility: 6mi
Dew Point: 55°   Wind: 2mph
Humidity: 73%   Direction: NA
Pressure: 30.09"   Gusts: NA
Location:  45.33°N, 14.44°E
Report Text: LDRI 201800Z VRB02KT 9999 BKN033 18/13 Q1019
Loading
Personal Weather Stations






























Interactive Weather Map
Tropical Storm Tracking
New forecast layout! Learn more

10-Day Weather Forecast

Advertisements
Track Severe Weather on mobile